createdAt,value
2019-02-02T00:03:44.967Z,90.93
2019-02-02T00:07:46.455Z,91.05
2019-02-02T00:11:47.809Z,90.67
2019-02-02T00:15:51.026Z,90.46
2019-02-02T00:19:52.161Z,90.38
2019-02-02T00:23:53.623Z,91.17
2019-02-02T00:27:55.847Z,92.09
2019-02-02T00:31:57.435Z,91.53
2019-02-02T00:36:01.269Z,91.62
2019-02-02T00:40:06.195Z,91.18
2019-02-02T00:44:07.564Z,90.57
2019-02-02T00:48:08.799Z,91.00
2019-02-02T00:52:09.988Z,90.64
2019-02-02T00:56:11.430Z,90.96
2019-02-02T01:00:18.399Z,91.49
2019-02-02T01:04:19.650Z,91.32
2019-02-02T01:08:21.045Z,90.49
2019-02-02T01:12:22.311Z,90.38
2019-02-02T01:16:23.663Z,91.40
2019-02-02T01:20:25.117Z,91.93
2019-02-02T01:24:26.368Z,91.95
2019-02-02T01:28:27.528Z,91.53
2019-02-02T01:32:28.807Z,91.30
2019-02-02T01:36:29.920Z,91.18
2019-02-02T01:40:31.083Z,92.27
2019-02-02T01:44:32.367Z,91.69
2019-02-02T01:48:33.631Z,91.99
2019-02-02T01:52:34.970Z,91.63
2019-02-02T01:56:36.185Z,92.54
2019-02-02T02:00:39.361Z,92.07
2019-02-02T02:04:40.514Z,92.25
2019-02-02T02:08:42.018Z,92.05
2019-02-02T02:12:43.306Z,92.68
2019-02-02T02:16:44.458Z,93.56
2019-02-02T02:20:45.749Z,93.24
2019-02-02T02:24:47.317Z,92.91
2019-02-02T02:28:48.670Z,92.80
2019-02-02T02:32:50.779Z,93.04
2019-02-02T02:36:51.998Z,93.49
2019-02-02T02:40:53.301Z,93.31
2019-02-02T02:44:55.668Z,93.05
2019-02-02T02:48:56.936Z,93.24
2019-02-02T02:52:58.182Z,93.33
2019-02-02T02:56:59.388Z,92.98
2019-02-02T03:01:02.456Z,92.21
2019-02-02T03:05:06.456Z,91.97
2019-02-02T03:09:08.953Z,92.60
2019-02-02T03:13:10.273Z,92.82
2019-02-02T03:17:11.452Z,92.73
2019-02-02T03:21:12.716Z,92.79
2019-02-02T03:25:24.521Z,92.41
2019-02-02T03:29:25.654Z,91.80
2019-02-02T03:33:26.898Z,91.62
2019-02-02T03:37:28.136Z,91.77
2019-02-02T03:41:29.330Z,91.79
2019-02-02T03:45:30.560Z,92.13
2019-02-02T03:49:31.891Z,92.13
2019-02-02T03:53:33.087Z,92.14
2019-02-02T03:57:34.240Z,92.44
2019-02-02T04:01:35.789Z,92.60
2019-02-02T04:05:36.962Z,91.85
2019-02-02T04:09:38.094Z,91.07
2019-02-02T04:13:39.246Z,91.45
2019-02-02T04:17:40.390Z,91.10
2019-02-02T04:21:41.592Z,91.04
2019-02-02T04:25:42.755Z,92.09
2019-02-02T04:29:43.859Z,92.41
2019-02-02T04:33:44.978Z,91.63
2019-02-02T04:37:46.195Z,91.47
2019-02-02T04:41:47.451Z,91.67
2019-02-02T04:45:48.635Z,91.61
2019-02-02T04:49:49.941Z,91.21
2019-02-02T04:53:51.218Z,91.58
2019-02-02T04:57:52.311Z,91.49
2019-02-02T05:01:53.711Z,91.18
2019-02-02T05:05:54.926Z,91.73
2019-02-02T05:09:56.061Z,92.86
2019-02-02T05:13:57.375Z,92.52
2019-02-02T05:17:58.597Z,92.07
2019-02-02T05:21:59.849Z,91.73
2019-02-02T05:26:01.842Z,91.90
2019-02-02T05:30:18.348Z,91.79
2019-02-02T05:34:19.831Z,92.11
2019-02-02T05:38:21.037Z,92.63
2019-02-02T05:42:22.279Z,92.34
2019-02-02T05:46:23.525Z,92.41
2019-02-02T05:50:24.936Z,92.61
2019-02-02T05:54:26.215Z,92.89
2019-02-02T05:58:27.518Z,93.08
2019-02-02T06:02:28.806Z,93.25
2019-02-02T06:06:30.104Z,92.89
2019-02-02T06:10:31.490Z,93.23
2019-02-02T06:14:32.847Z,93.50
2019-02-02T06:18:34.001Z,93.21
2019-02-02T06:22:35.134Z,92.98
2019-02-02T06:26:36.852Z,92.82
2019-02-02T06:30:39.133Z,92.59
2019-02-02T06:34:40.413Z,93.00
2019-02-02T06:38:41.858Z,93.40
2019-02-02T06:42:43.188Z,92.99
2019-02-02T06:46:44.385Z,92.67
2019-02-02T06:50:45.492Z,92.21
2019-02-02T06:54:46.757Z,92.72
2019-02-02T06:58:48.005Z,92.43
2019-02-02T07:02:49.915Z,92.56
2019-02-02T07:06:53.226Z,92.63
2019-02-02T07:10:54.283Z,92.65
2019-02-02T07:14:56.806Z,92.46
2019-02-02T07:18:57.919Z,92.79
2019-02-02T07:22:59.077Z,92.24
2019-02-02T07:27:00.208Z,93.03
2019-02-02T07:31:01.498Z,93.12
2019-02-02T07:35:04.974Z,92.59
2019-02-02T07:39:06.186Z,92.94
2019-02-02T07:43:08.357Z,92.70
2019-02-02T07:47:09.503Z,92.79
2019-02-02T07:51:10.653Z,91.88
2019-02-02T07:55:14.390Z,91.39
2019-02-02T07:59:16.635Z,91.49
2019-02-02T08:03:17.918Z,90.81
2019-02-02T08:07:19.327Z,90.83
2019-02-02T08:11:20.645Z,90.92
2019-02-02T08:15:24.956Z,89.59
2019-02-02T08:19:26.487Z,87.86
2019-02-02T08:23:27.856Z,88.58
2019-02-02T08:27:29.179Z,87.36
2019-02-02T08:31:30.834Z,87.60
2019-02-02T08:35:33.136Z,87.10
2019-02-02T08:39:34.385Z,88.76
2019-02-02T08:43:35.749Z,88.05
2019-02-02T08:47:37.090Z,86.00
2019-02-02T08:51:38.290Z,86.45
2019-02-02T08:55:39.545Z,86.05
2019-02-02T08:59:40.797Z,87.51
2019-02-02T09:03:42.021Z,83.19
2019-02-02T09:07:43.263Z,84.91
2019-02-02T09:11:44.979Z,86.87
2019-02-02T09:15:46.741Z,85.09
2019-02-02T09:19:48.258Z,86.29
2019-02-02T09:23:49.431Z,82.74
2019-02-02T09:27:50.764Z,80.18
2019-02-02T09:31:52.552Z,77.16
2019-02-02T09:35:54.071Z,77.43
2019-02-02T09:39:55.503Z,77.93
2019-02-02T09:43:56.966Z,75.91
2019-02-02T09:47:58.532Z,73.87
2019-02-02T09:51:59.924Z,71.26
2019-02-02T09:56:01.198Z,64.88
2019-02-02T10:00:06.165Z,63.77
2019-02-02T10:04:07.547Z,61.09
2019-02-02T10:08:08.817Z,61.04
2019-02-02T10:12:10.579Z,59.34
2019-02-02T10:16:11.784Z,60.77
2019-02-02T10:20:15.580Z,62.55
2019-02-02T10:24:16.791Z,59.04
2019-02-02T10:28:17.953Z,61.13
2019-02-02T10:32:19.097Z,57.69
2019-02-02T10:36:20.358Z,57.23
2019-02-02T10:40:22.178Z,55.83
2019-02-02T10:44:24.454Z,58.51
2019-02-02T10:48:26.196Z,60.71
2019-02-02T10:52:27.527Z,65.01
2019-02-02T10:56:28.905Z,69.56
2019-02-02T11:00:36.055Z,68.11
2019-02-02T11:04:37.438Z,65.84
2019-02-02T11:08:38.889Z,63.98
2019-02-02T11:12:40.631Z,63.71
2019-02-02T11:16:42.090Z,61.75
2019-02-02T11:20:43.954Z,66.09
2019-02-02T11:24:45.344Z,64.86
2019-02-02T11:28:47.183Z,62.00
2019-02-02T11:32:48.724Z,62.53
2019-02-02T11:36:49.865Z,64.38
2019-02-02T11:40:51.076Z,62.60
2019-02-02T11:44:52.333Z,61.65
2019-02-02T11:48:53.591Z,62.28
2019-02-02T11:52:54.863Z,62.08
2019-02-02T11:56:56.311Z,62.00
2019-02-02T12:00:57.577Z,62.15
2019-02-02T12:04:59.018Z,58.74
2019-02-02T12:09:00.630Z,55.28
2019-02-02T12:13:01.929Z,56.47
2019-02-02T12:17:03.402Z,54.61
2019-02-02T12:21:04.788Z,54.26
2019-02-02T12:25:06.464Z,53.76
2019-02-02T12:29:07.867Z,53.81
2019-02-02T12:33:09.224Z,55.22
2019-02-02T12:37:10.612Z,54.82
2019-02-02T12:41:11.892Z,55.24
2019-02-02T12:45:19.060Z,54.86
2019-02-02T12:49:20.456Z,53.81
2019-02-02T12:53:21.709Z,54.10
2019-02-02T12:57:23.206Z,54.66
2019-02-02T13:01:24.583Z,53.86
2019-02-02T13:05:25.962Z,53.34
2019-02-02T13:09:27.380Z,55.58
2019-02-02T13:13:28.535Z,55.04
2019-02-02T13:17:30.177Z,55.32
2019-02-02T13:21:31.384Z,54.86
2019-02-02T13:25:32.955Z,55.06
2019-02-02T13:29:34.925Z,54.99
2019-02-02T13:33:36.166Z,55.46
2019-02-02T13:37:37.641Z,55.31
2019-02-02T13:41:39.498Z,53.57
2019-02-02T13:45:41.245Z,55.26
2019-02-02T13:49:42.707Z,56.42
2019-02-02T13:53:44.203Z,56.98
2019-02-02T13:57:47.304Z,57.59
2019-02-02T14:01:48.579Z,57.77
2019-02-02T14:05:50.004Z,57.78
2019-02-02T14:09:51.249Z,59.10
2019-02-02T14:13:52.647Z,57.87
2019-02-02T14:17:53.878Z,59.69
2019-02-02T14:21:55.136Z,59.10
2019-02-02T14:25:56.532Z,60.51
2019-02-02T14:29:57.807Z,61.12
2019-02-02T14:33:59.115Z,63.20
2019-02-02T14:38:00.702Z,64.88
2019-02-02T14:42:01.879Z,65.29
2019-02-02T14:46:03.359Z,65.10
2019-02-02T14:50:10.593Z,64.38
2019-02-02T14:54:12.180Z,64.50
2019-02-02T14:58:13.858Z,64.21
2019-02-02T15:02:15.251Z,64.52
2019-02-02T15:06:16.510Z,66.35
2019-02-02T15:10:18.887Z,64.12
2019-02-02T15:14:20.294Z,64.64
2019-02-02T15:18:21.499Z,65.09
2019-02-02T15:22:22.841Z,64.04
2019-02-02T15:26:25.537Z,64.34
2019-02-02T15:30:29.272Z,65.22
2019-02-02T15:34:30.608Z,66.10
2019-02-02T15:38:31.853Z,66.19
2019-02-02T15:42:33.553Z,67.09
2019-02-02T15:46:34.893Z,66.51
2019-02-02T15:50:36.155Z,68.30
2019-02-02T15:54:37.305Z,68.54
2019-02-02T15:58:39.112Z,69.78
2019-02-02T16:02:40.587Z,71.60
2019-02-02T16:06:41.876Z,72.99
2019-02-02T16:10:43.241Z,73.51
2019-02-02T16:14:44.345Z,75.04
2019-02-02T16:18:45.849Z,75.82
2019-02-02T16:22:48.031Z,77.02
2019-02-02T16:26:49.468Z,77.74
2019-02-02T16:30:50.626Z,78.50
2019-02-02T16:34:52.110Z,79.24
2019-02-02T16:38:53.430Z,79.89
2019-02-02T16:42:54.967Z,80.66
2019-02-02T16:46:56.251Z,81.02
2019-02-02T16:50:57.508Z,81.51
2019-02-02T16:55:04.608Z,81.74
2019-02-02T16:59:10.615Z,81.71
2019-02-02T17:03:11.901Z,81.65
2019-02-02T17:07:13.149Z,81.24
2019-02-02T17:11:14.706Z,81.12
2019-02-02T17:15:17.045Z,81.12
2019-02-02T17:19:18.655Z,80.92
2019-02-02T17:23:20.180Z,80.74
2019-02-02T17:27:21.348Z,79.89
2019-02-02T17:31:24.570Z,78.78
2019-02-02T17:35:26.181Z,79.05
2019-02-02T17:39:27.605Z,79.24
2019-02-02T17:43:28.979Z,78.58
2019-02-02T17:47:30.246Z,77.88
2019-02-02T17:51:31.404Z,77.54
2019-02-02T17:55:32.816Z,76.94
2019-02-02T17:59:34.117Z,76.90
2019-02-02T18:03:35.248Z,77.40
2019-02-02T18:07:36.538Z,77.86
2019-02-02T18:11:39.343Z,78.28
2019-02-02T18:15:40.641Z,78.01
2019-02-02T18:19:42.030Z,78.04
2019-02-02T18:23:43.383Z,78.74
2019-02-02T18:27:45.058Z,78.89
2019-02-02T18:31:46.311Z,78.91
2019-02-02T18:35:47.588Z,78.95
2019-02-02T18:39:48.752Z,79.03
2019-02-02T18:43:50.102Z,79.04
2019-02-02T18:47:51.364Z,79.44
2019-02-02T18:51:53.316Z,79.77
2019-02-02T18:55:56.714Z,79.39
2019-02-02T18:59:58.273Z,79.81
2019-02-02T19:03:59.686Z,79.49
2019-02-02T19:08:01.064Z,80.20
2019-02-02T19:12:02.439Z,80.38
2019-02-02T19:16:03.944Z,80.58
2019-02-02T19:20:14.738Z,80.45
2019-02-02T19:24:16.257Z,80.03
2019-02-02T19:28:17.481Z,80.10
2019-02-02T19:32:19.083Z,79.73
2019-02-02T19:36:20.211Z,80.44
2019-02-02T19:40:21.468Z,80.16
2019-02-02T19:44:22.855Z,80.45
2019-02-02T19:48:24.410Z,80.25
2019-02-02T19:52:25.797Z,79.91
2019-02-02T19:56:27.060Z,79.60
2019-02-02T20:00:30.640Z,79.47
2019-02-02T20:04:32.081Z,79.23
2019-02-02T20:08:33.467Z,79.34
2019-02-02T20:12:34.717Z,79.40
2019-02-02T20:16:35.992Z,79.12
2019-02-02T20:20:37.725Z,79.36
2019-02-02T20:24:40.260Z,79.78
2019-02-02T20:28:41.549Z,80.19
2019-02-02T20:32:44.061Z,80.45
2019-02-02T20:36:45.851Z,79.98
2019-02-02T20:40:47.292Z,80.28
2019-02-02T20:44:48.810Z,80.83
2019-02-02T20:48:50.433Z,80.84
2019-02-02T20:52:52.116Z,80.93
2019-02-02T20:56:53.210Z,80.88
2019-02-02T21:00:54.487Z,81.12
2019-02-02T21:04:55.832Z,81.37
2019-02-02T21:08:59.090Z,81.22
2019-02-02T21:13:00.707Z,81.04
2019-02-02T21:17:01.953Z,81.27
2019-02-02T21:21:03.651Z,81.46
2019-02-02T21:25:07.741Z,81.23
2019-02-02T21:29:09.426Z,80.91
2019-02-02T21:33:11.116Z,80.94
2019-02-02T21:37:12.502Z,80.91
2019-02-02T21:41:13.946Z,81.04
2019-02-02T21:45:15.559Z,81.00
2019-02-02T21:49:16.974Z,80.91
2019-02-02T21:53:18.851Z,80.83
2019-02-02T21:57:20.240Z,80.84
2019-02-02T22:01:24.625Z,81.01
2019-02-02T22:05:26.139Z,81.21
2019-02-02T22:09:27.462Z,81.24
2019-02-02T22:13:28.742Z,81.21
2019-02-02T22:17:30.148Z,80.98
2019-02-02T22:21:31.419Z,79.60
2019-02-02T22:25:32.656Z,80.04
2019-02-02T22:29:34.011Z,80.07
2019-02-02T22:33:35.327Z,80.42
2019-02-02T22:37:36.456Z,80.27
2019-02-02T22:41:37.938Z,80.31
2019-02-02T22:45:39.144Z,79.92
2019-02-02T22:49:40.503Z,80.06
2019-02-02T22:53:41.883Z,79.76
2019-02-02T22:57:43.385Z,79.80
2019-02-02T23:01:44.660Z,79.76
2019-02-02T23:06:02.197Z,79.79
2019-02-02T23:10:19.237Z,79.45
2019-02-02T23:14:42.465Z,79.56
2019-02-02T23:18:46.797Z,80.05
2019-02-02T23:22:47.119Z,79.92
2019-02-02T23:26:48.251Z,80.12
2019-02-02T23:30:49.467Z,80.51
2019-02-02T23:34:50.933Z,80.82
2019-02-02T23:38:52.279Z,80.79
2019-02-02T23:42:53.444Z,80.83
2019-02-02T23:46:55.316Z,81.03
2019-02-02T23:50:56.590Z,81.25
2019-02-02T23:54:58.101Z,81.10
2019-02-02T23:58:59.477Z,81.66
